sensor_id;sensor_type;location;lat;lon;timestamp;temperature;humidity
67354;SHT30;54238;52.278;21.056;2022-10-18T00:01:13;16.56;68.62
67354;SHT30;54238;52.278;21.056;2022-10-18T00:03:45;16.56;68.61
67354;SHT30;54238;52.278;21.056;2022-10-18T00:06:12;16.54;68.57
67354;SHT30;54238;52.278;21.056;2022-10-18T00:08:42;16.52;68.49
67354;SHT30;54238;52.278;21.056;2022-10-18T00:11:09;16.51;68.41
67354;SHT30;54238;52.278;21.056;2022-10-18T00:13:41;16.51;68.40
67354;SHT30;54238;52.278;21.056;2022-10-18T00:16:13;16.52;68.23
67354;SHT30;54238;52.278;21.056;2022-10-18T00:18:43;16.50;68.21
67354;SHT30;54238;52.278;21.056;2022-10-18T00:21:12;16.47;68.39
67354;SHT30;54238;52.278;21.056;2022-10-18T00:23:43;16.43;68.46
67354;SHT30;54238;52.278;21.056;2022-10-18T00:28:53;16.41;68.44
67354;SHT30;54238;52.278;21.056;2022-10-18T00:31:27;16.39;68.43
67354;SHT30;54238;52.278;21.056;2022-10-18T00:34:06;16.38;68.48
67354;SHT30;54238;52.278;21.056;2022-10-18T00:36:39;16.34;68.49
67354;SHT30;54238;52.278;21.056;2022-10-18T00:39:16;16.32;68.46
67354;SHT30;54238;52.278;21.056;2022-10-18T00:41:46;16.30;68.45
67354;SHT30;54238;52.278;21.056;2022-10-18T00:47:01;16.29;68.37
67354;SHT30;54238;52.278;21.056;2022-10-18T00:49:38;16.28;68.19
67354;SHT30;54238;52.278;21.056;2022-10-18T00:52:32;16.27;68.23
67354;SHT30;54238;52.278;21.056;2022-10-18T00:55:06;16.28;68.10
67354;SHT30;54238;52.278;21.056;2022-10-18T00:57:37;16.28;68.06
67354;SHT30;54238;52.278;21.056;2022-10-18T01:00:11;16.29;68.00
67354;SHT30;54238;52.278;21.056;2022-10-18T01:02:42;16.28;67.93
67354;SHT30;54238;52.278;21.056;2022-10-18T01:05:12;16.26;67.82
67354;SHT30;54238;52.278;21.056;2022-10-18T01:07:58;16.21;68.00
67354;SHT30;54238;52.278;21.056;2022-10-18T01:21:58;16.22;67.35
67354;SHT30;54238;52.278;21.056;2022-10-18T01:24:44;16.22;67.26
67354;SHT30;54238;52.278;21.056;2022-10-18T01:27:29;16.24;67.10
67354;SHT30;54238;52.278;21.056;2022-10-18T01:33:45;16.29;66.69
67354;SHT30;54238;52.278;21.056;2022-10-18T01:36:33;16.30;66.54
67354;SHT30;54238;52.278;21.056;2022-10-18T01:39:06;16.31;66.42
67354;SHT30;54238;52.278;21.056;2022-10-18T01:41:40;16.31;66.29
67354;SHT30;54238;52.278;21.056;2022-10-18T01:44:12;16.33;66.12
67354;SHT30;54238;52.278;21.056;2022-10-18T01:46:49;16.33;66.08
67354;SHT30;54238;52.278;21.056;2022-10-18T01:49:22;16.31;66.06
67354;SHT30;54238;52.278;21.056;2022-10-18T01:51:52;16.31;65.94
67354;SHT30;54238;52.278;21.056;2022-10-18T01:54:20;16.31;65.76
67354;SHT30;54238;52.278;21.056;2022-10-18T02:08:19;16.38;64.96
67354;SHT30;54238;52.278;21.056;2022-10-18T02:11:26;16.43;64.47
67354;SHT30;54238;52.278;21.056;2022-10-18T02:14:00;16.48;64.23
67354;SHT30;54238;52.278;21.056;2022-10-18T02:19:15;16.61;63.42
67354;SHT30;54238;52.278;21.056;2022-10-18T02:22:00;16.69;62.74
67354;SHT30;54238;52.278;21.056;2022-10-18T02:24:34;16.77;62.50
67354;SHT30;54238;52.278;21.056;2022-10-18T02:27:07;16.84;62.19
67354;SHT30;54238;52.278;21.056;2022-10-18T02:29:35;16.89;62.00
67354;SHT30;54238;52.278;21.056;2022-10-18T02:34:57;16.98;61.48
67354;SHT30;54238;52.278;21.056;2022-10-18T02:37:36;17.04;61.21
67354;SHT30;54238;52.278;21.056;2022-10-18T02:40:06;17.09;61.10
67354;SHT30;54238;52.278;21.056;2022-10-18T02:42:36;17.15;60.84
67354;SHT30;54238;52.278;21.056;2022-10-18T02:45:10;17.18;60.73
67354;SHT30;54238;52.278;21.056;2022-10-18T02:47:39;17.22;60.51
67354;SHT30;54238;52.278;21.056;2022-10-18T02:50:09;17.26;60.23
67354;SHT30;54238;52.278;21.056;2022-10-18T02:52:39;17.29;60.06
67354;SHT30;54238;52.278;21.056;2022-10-18T02:55:06;17.33;59.98
67354;SHT30;54238;52.278;21.056;2022-10-18T02:57:37;17.36;59.74
67354;SHT30;54238;52.278;21.056;2022-10-18T03:00:08;17.38;59.66
67354;SHT30;54238;52.278;21.056;2022-10-18T03:02:40;17.41;59.75
67354;SHT30;54238;52.278;21.056;2022-10-18T03:05:08;17.42;59.60
67354;SHT30;54238;52.278;21.056;2022-10-18T03:07:37;17.43;59.50
67354;SHT30;54238;52.278;21.056;2022-10-18T03:10:04;17.44;59.37
67354;SHT30;54238;52.278;21.056;2022-10-18T03:12:37;17.43;59.26
67354;SHT30;54238;52.278;21.056;2022-10-18T03:15:08;17.42;59.20
67354;SHT30;54238;52.278;21.056;2022-10-18T03:17:36;17.42;59.26
67354;SHT30;54238;52.278;21.056;2022-10-18T03:20:05;17.40;59.30
67354;SHT30;54238;52.278;21.056;2022-10-18T03:22:39;17.39;59.09
67354;SHT30;54238;52.278;21.056;2022-10-18T03:25:08;17.38;59.19
67354;SHT30;54238;52.278;21.056;2022-10-18T03:27:40;17.38;59.17
67354;SHT30;54238;52.278;21.056;2022-10-18T03:30:08;17.36;59.01
67354;SHT30;54238;52.278;21.056;2022-10-18T03:32:41;17.36;58.98
67354;SHT30;54238;52.278;21.056;2022-10-18T03:35:08;17.35;59.01
67354;SHT30;54238;52.278;21.056;2022-10-18T03:37:36;17.34;58.97
67354;SHT30;54238;52.278;21.056;2022-10-18T03:40:10;17.34;58.99
67354;SHT30;54238;52.278;21.056;2022-10-18T03:42:40;17.34;58.84
67354;SHT30;54238;52.278;21.056;2022-10-18T03:45:08;17.35;58.68
67354;SHT30;54238;52.278;21.056;2022-10-18T03:47:38;17.34;58.65
67354;SHT30;54238;52.278;21.056;2022-10-18T03:50:05;17.33;58.74
67354;SHT30;54238;52.278;21.056;2022-10-18T03:52:36;17.31;58.89
67354;SHT30;54238;52.278;21.056;2022-10-18T03:55:08;17.28;58.78
67354;SHT30;54238;52.278;21.056;2022-10-18T03:57:40;17.29;58.77
67354;SHT30;54238;52.278;21.056;2022-10-18T04:00:14;17.29;58.78
67354;SHT30;54238;52.278;21.056;2022-10-18T04:02:44;17.30;58.64
67354;SHT30;54238;52.278;21.056;2022-10-18T04:05:11;17.30;58.64
67354;SHT30;54238;52.278;21.056;2022-10-18T04:07:38;17.32;58.66
67354;SHT30;54238;52.278;21.056;2022-10-18T04:10:08;17.30;58.63
67354;SHT30;54238;52.278;21.056;2022-10-18T04:12:40;17.30;58.54
67354;SHT30;54238;52.278;21.056;2022-10-18T04:15:12;17.28;58.48
67354;SHT30;54238;52.278;21.056;2022-10-18T04:17:43;17.26;58.55
67354;SHT30;54238;52.278;21.056;2022-10-18T04:20:12;17.26;58.48
67354;SHT30;54238;52.278;21.056;2022-10-18T04:22:46;17.26;58.49
67354;SHT30;54238;52.278;21.056;2022-10-18T04:25:18;17.25;58.35
67354;SHT30;54238;52.278;21.056;2022-10-18T04:27:45;17.23;58.36
67354;SHT30;54238;52.278;21.056;2022-10-18T04:30:13;17.22;58.31
67354;SHT30;54238;52.278;21.056;2022-10-18T04:32:47;17.19;58.34
67354;SHT30;54238;52.278;21.056;2022-10-18T04:35:17;17.18;58.33
67354;SHT30;54238;52.278;21.056;2022-10-18T04:37:45;17.15;58.46
67354;SHT30;54238;52.278;21.056;2022-10-18T04:40:17;17.12;58.45
67354;SHT30;54238;52.278;21.056;2022-10-18T04:42:45;17.12;58.49
67354;SHT30;54238;52.278;21.056;2022-10-18T04:45:17;17.10;58.52
67354;SHT30;54238;52.278;21.056;2022-10-18T04:47:47;17.09;58.53
67354;SHT30;54238;52.278;21.056;2022-10-18T04:50:13;17.06;58.52
67354;SHT30;54238;52.278;21.056;2022-10-18T04:52:43;17.03;58.53
67354;SHT30;54238;52.278;21.056;2022-10-18T04:55:10;17.01;58.62
67354;SHT30;54238;52.278;21.056;2022-10-18T04:57:44;16.99;58.65
67354;SHT30;54238;52.278;21.056;2022-10-18T05:00:14;16.96;58.74
67354;SHT30;54238;52.278;21.056;2022-10-18T05:02:41;16.93;58.88
67354;SHT30;54238;52.278;21.056;2022-10-18T05:05:11;16.90;58.89
67354;SHT30;54238;52.278;21.056;2022-10-18T05:07:43;16.87;59.00
67354;SHT30;54238;52.278;21.056;2022-10-18T05:10:12;16.84;59.00
67354;SHT30;54238;52.278;21.056;2022-10-18T05:12:44;16.82;59.11
67354;SHT30;54238;52.278;21.056;2022-10-18T05:15:11;16.80;59.18
67354;SHT30;54238;52.278;21.056;2022-10-18T05:17:43;16.79;59.25
67354;SHT30;54238;52.278;21.056;2022-10-18T05:20:14;16.77;59.31
67354;SHT30;54238;52.278;21.056;2022-10-18T05:22:41;16.74;59.38
67354;SHT30;54238;52.278;21.056;2022-10-18T05:25:11;16.73;59.47
67354;SHT30;54238;52.278;21.056;2022-10-18T05:27:41;16.70;59.51
67354;SHT30;54238;52.278;21.056;2022-10-18T05:30:08;16.68;59.60
67354;SHT30;54238;52.278;21.056;2022-10-18T05:32:35;16.68;59.64
67354;SHT30;54238;52.278;21.056;2022-10-18T05:35:02;16.66;59.70
67354;SHT30;54238;52.278;21.056;2022-10-18T05:37:32;16.66;59.72
67354;SHT30;54238;52.278;21.056;2022-10-18T05:40:01;16.67;59.76
67354;SHT30;54238;52.278;21.056;2022-10-18T05:42:28;16.66;59.79
67354;SHT30;54238;52.278;21.056;2022-10-18T05:45:00;16.63;59.86
67354;SHT30;54238;52.278;21.056;2022-10-18T05:47:27;16.64;59.86
67354;SHT30;54238;52.278;21.056;2022-10-18T05:49:56;16.64;59.88
67354;SHT30;54238;52.278;21.056;2022-10-18T05:52:24;16.65;59.88
67354;SHT30;54238;52.278;21.056;2022-10-18T05:54:51;16.65;59.91
67354;SHT30;54238;52.278;21.056;2022-10-18T05:57:23;16.66;59.96
67354;SHT30;54238;52.278;21.056;2022-10-18T05:59:50;16.66;59.93
67354;SHT30;54238;52.278;21.056;2022-10-18T06:02:19;16.67;59.92
67354;SHT30;54238;52.278;21.056;2022-10-18T06:04:48;16.68;59.93
67354;SHT30;54238;52.278;21.056;2022-10-18T06:07:19;16.69;59.99
67354;SHT30;54238;52.278;21.056;2022-10-18T06:09:46;16.69;60.00
67354;SHT30;54238;52.278;21.056;2022-10-18T06:12:16;16.72;60.00
67354;SHT30;54238;52.278;21.056;2022-10-18T06:14:45;16.76;59.89
67354;SHT30;54238;52.278;21.056;2022-10-18T06:17:16;16.78;59.85
67354;SHT30;54238;52.278;21.056;2022-10-18T06:19:43;16.84;59.79
67354;SHT30;54238;52.278;21.056;2022-10-18T06:22:15;16.86;59.66
67354;SHT30;54238;52.278;21.056;2022-10-18T06:24:42;16.89;59.59
67354;SHT30;54238;52.278;21.056;2022-10-18T06:27:09;16.91;59.56
67354;SHT30;54238;52.278;21.056;2022-10-18T06:29:38;16.94;59.48
67354;SHT30;54238;52.278;21.056;2022-10-18T06:32:10;16.98;59.41
67354;SHT30;54238;52.278;21.056;2022-10-18T06:34:39;16.99;59.34
67354;SHT30;54238;52.278;21.056;2022-10-18T06:37:09;17.00;59.32
67354;SHT30;54238;52.278;21.056;2022-10-18T06:39:41;17.02;59.38
67354;SHT30;54238;52.278;21.056;2022-10-18T06:42:08;17.05;59.31
67354;SHT30;54238;52.278;21.056;2022-10-18T06:44:40;17.08;59.17
67354;SHT30;54238;52.278;21.056;2022-10-18T06:47:11;17.08;59.13
67354;SHT30;54238;52.278;21.056;2022-10-18T06:49:38;17.08;59.11
67354;SHT30;54238;52.278;21.056;2022-10-18T06:52:05;17.09;59.20
67354;SHT30;54238;52.278;21.056;2022-10-18T06:54:35;17.12;59.24
67354;SHT30;54238;52.278;21.056;2022-10-18T06:57:06;17.13;59.15
67354;SHT30;54238;52.278;21.056;2022-10-18T06:59:33;17.16;59.04
67354;SHT30;54238;52.278;21.056;2022-10-18T07:02:03;17.22;59.11
67354;SHT30;54238;52.278;21.056;2022-10-18T07:04:30;17.27;58.96
67354;SHT30;54238;52.278;21.056;2022-10-18T07:06:58;17.27;58.78
67354;SHT30;54238;52.278;21.056;2022-10-18T07:09:29;17.25;58.87
67354;SHT30;54238;52.278;21.056;2022-10-18T07:11:59;17.29;59.00
67354;SHT30;54238;52.278;21.056;2022-10-18T07:14:29;17.36;59.07
67354;SHT30;54238;52.278;21.056;2022-10-18T07:16:58;17.46;59.05
67354;SHT30;54238;52.278;21.056;2022-10-18T07:19:25;17.57;58.65
67354;SHT30;54238;52.278;21.056;2022-10-18T07:21:52;17.60;58.29
67354;SHT30;54238;52.278;21.056;2022-10-18T07:24:22;17.61;58.23
67354;SHT30;54238;52.278;21.056;2022-10-18T07:26:51;17.63;58.17
67354;SHT30;54238;52.278;21.056;2022-10-18T07:29:21;17.63;58.21
67354;SHT30;54238;52.278;21.056;2022-10-18T07:31:54;17.69;58.18
67354;SHT30;54238;52.278;21.056;2022-10-18T07:34:21;17.73;58.03
67354;SHT30;54238;52.278;21.056;2022-10-18T07:36:50;17.75;58.09
67354;SHT30;54238;52.278;21.056;2022-10-18T07:39:19;17.79;57.96
67354;SHT30;54238;52.278;21.056;2022-10-18T07:41:51;17.81;57.82
67354;SHT30;54238;52.278;21.056;2022-10-18T07:44:20;17.83;57.91
67354;SHT30;54238;52.278;21.056;2022-10-18T07:46:47;17.90;57.97
67354;SHT30;54238;52.278;21.056;2022-10-18T07:49:16;18.00;57.88
67354;SHT30;54238;52.278;21.056;2022-10-18T07:51:49;18.10;57.70
67354;SHT30;54238;52.278;21.056;2022-10-18T07:54:20;18.19;57.47
67354;SHT30;54238;52.278;21.056;2022-10-18T07:56:49;18.27;57.28
67354;SHT30;54238;52.278;21.056;2022-10-18T07:59:19;18.31;57.39
67354;SHT30;54238;52.278;21.056;2022-10-18T08:01:53;18.39;57.27
67354;SHT30;54238;52.278;21.056;2022-10-18T08:04:23;18.46;56.96
67354;SHT30;54238;52.278;21.056;2022-10-18T08:06:52;18.47;56.82
67354;SHT30;54238;52.278;21.056;2022-10-18T08:09:21;18.51;56.98
67354;SHT30;54238;52.278;21.056;2022-10-18T08:11:48;18.58;57.02
67354;SHT30;54238;52.278;21.056;2022-10-18T08:14:17;18.66;56.64
67354;SHT30;54238;52.278;21.056;2022-10-18T08:16:44;18.64;56.41
67354;SHT30;54238;52.278;21.056;2022-10-18T08:19:11;18.64;56.56
67354;SHT30;54238;52.278;21.056;2022-10-18T08:21:41;18.68;56.37
67354;SHT30;54238;52.278;21.056;2022-10-18T08:24:08;18.71;56.26
67354;SHT30;54238;52.278;21.056;2022-10-18T08:26:35;18.77;56.09
67354;SHT30;54238;52.278;21.056;2022-10-18T08:29:04;18.83;55.95
67354;SHT30;54238;52.278;21.056;2022-10-18T08:31:40;18.92;55.85
67354;SHT30;54238;52.278;21.056;2022-10-18T08:34:10;19.08;55.92
67354;SHT30;54238;52.278;21.056;2022-10-18T08:36:39;19.37;55.75
67354;SHT30;54238;52.278;21.056;2022-10-18T08:39:08;19.59;54.70
67354;SHT30;54238;52.278;21.056;2022-10-18T08:41:44;19.81;54.62
67354;SHT30;54238;52.278;21.056;2022-10-18T08:44:42;20.11;53.76
67354;SHT30;54238;52.278;21.056;2022-10-18T08:47:49;20.43;53.48
67354;SHT30;54238;52.278;21.056;2022-10-18T08:50:12;20.81;52.43
67354;SHT30;54238;52.278;21.056;2022-10-18T08:55:35;21.34;51.10
67354;SHT30;54238;52.278;21.056;2022-10-18T09:01:05;22.33;49.39
67354;SHT30;54238;52.278;21.056;2022-10-18T09:09:37;23.31;47.17
67354;SHT30;54238;52.278;21.056;2022-10-18T09:15:23;23.85;46.03
67354;SHT30;54238;52.278;21.056;2022-10-18T09:27:08;24.02;46.01
67354;SHT30;54238;52.278;21.056;2022-10-18T09:35:55;24.03;46.04
67354;SHT30;54238;52.278;21.056;2022-10-18T09:39:03;24.06;46.05
67354;SHT30;54238;52.278;21.056;2022-10-18T09:41:29;24.04;46.03
67354;SHT30;54238;52.278;21.056;2022-10-18T09:44:16;24.25;45.84
67354;SHT30;54238;52.278;21.056;2022-10-18T09:46:54;24.59;45.23
67354;SHT30;54238;52.278;21.056;2022-10-18T09:52:21;25.44;44.64
67354;SHT30;54238;52.278;21.056;2022-10-18T09:55:17;25.94;43.59
67354;SHT30;54238;52.278;21.056;2022-10-18T09:57:55;26.45;42.94
67354;SHT30;54238;52.278;21.056;2022-10-18T10:00:42;26.94;41.76
67354;SHT30;54238;52.278;21.056;2022-10-18T10:03:18;27.39;41.00
67354;SHT30;54238;52.278;21.056;2022-10-18T10:05:50;27.75;40.58
67354;SHT30;54238;52.278;21.056;2022-10-18T10:08:52;27.94;39.59
67354;SHT30;54238;52.278;21.056;2022-10-18T10:11:36;27.48;40.11
67354;SHT30;54238;52.278;21.056;2022-10-18T10:14:12;27.10;40.79
67354;SHT30;54238;52.278;21.056;2022-10-18T10:16:43;26.67;40.93
67354;SHT30;54238;52.278;21.056;2022-10-18T10:19:17;26.36;41.70
67354;SHT30;54238;52.278;21.056;2022-10-18T10:21:57;26.70;41.70
67354;SHT30;54238;52.278;21.056;2022-10-18T10:27:23;27.98;40.47
67354;SHT30;54238;52.278;21.056;2022-10-18T10:32:59;27.89;39.46
67354;SHT30;54238;52.278;21.056;2022-10-18T10:38:09;27.12;40.36
67354;SHT30;54238;52.278;21.056;2022-10-18T10:40:52;26.93;40.62
67354;SHT30;54238;52.278;21.056;2022-10-18T10:43:25;26.82;40.83
67354;SHT30;54238;52.278;21.056;2022-10-18T10:46:05;26.72;41.27
67354;SHT30;54238;52.278;21.056;2022-10-18T10:48:46;26.53;41.61
67354;SHT30;54238;52.278;21.056;2022-10-18T10:54:00;26.40;42.17
67354;SHT30;54238;52.278;21.056;2022-10-18T10:56:48;26.11;42.09
67354;SHT30;54238;52.278;21.056;2022-10-18T10:59:41;25.70;42.98
67354;SHT30;54238;52.278;21.056;2022-10-18T11:04:41;26.51;42.58
67354;SHT30;54238;52.278;21.056;2022-10-18T11:09:41;27.42;41.38
67354;SHT30;54238;52.278;21.056;2022-10-18T11:18:16;28.51;38.82
67354;SHT30;54238;52.278;21.056;2022-10-18T11:23:37;27.54;40.53
67354;SHT30;54238;52.278;21.056;2022-10-18T11:29:17;26.67;42.26
67354;SHT30;54238;52.278;21.056;2022-10-18T11:40:41;26.43;43.82
67354;SHT30;54238;52.278;21.056;2022-10-18T11:43:57;26.69;43.25
67354;SHT30;54238;52.278;21.056;2022-10-18T11:46:36;26.63;43.45
67354;SHT30;54238;52.278;21.056;2022-10-18T12:01:30;27.32;42.85
67354;SHT30;54238;52.278;21.056;2022-10-18T12:04:30;27.30;43.13
67354;SHT30;54238;52.278;21.056;2022-10-18T12:07:08;27.14;43.42
67354;SHT30;54238;52.278;21.056;2022-10-18T12:09:43;26.71;43.94
67354;SHT30;54238;52.278;21.056;2022-10-18T12:12:32;26.30;44.41
67354;SHT30;54238;52.278;21.056;2022-10-18T12:15:19;25.78;45.24
67354;SHT30;54238;52.278;21.056;2022-10-18T12:17:51;25.32;46.23
67354;SHT30;54238;52.278;21.056;2022-10-18T12:20:34;24.86;47.14
67354;SHT30;54238;52.278;21.056;2022-10-18T12:26:10;24.10;48.97
67354;SHT30;54238;52.278;21.056;2022-10-18T12:31:41;23.55;50.50
67354;SHT30;54238;52.278;21.056;2022-10-18T12:34:21;23.33;51.24
67354;SHT30;54238;52.278;21.056;2022-10-18T12:42:32;22.84;52.91
67354;SHT30;54238;52.278;21.056;2022-10-18T12:47:41;22.65;53.22
67354;SHT30;54238;52.278;21.056;2022-10-18T12:50:24;22.56;53.86
67354;SHT30;54238;52.278;21.056;2022-10-18T12:53:18;22.36;54.37
67354;SHT30;54238;52.278;21.056;2022-10-18T12:55:53;22.17;54.94
67354;SHT30;54238;52.278;21.056;2022-10-18T12:58:41;21.98;55.34
67354;SHT30;54238;52.278;21.056;2022-10-18T13:01:08;21.84;55.83
67354;SHT30;54238;52.278;21.056;2022-10-18T13:03:38;21.74;56.27
67354;SHT30;54238;52.278;21.056;2022-10-18T13:06:24;21.63;56.96
67354;SHT30;54238;52.278;21.056;2022-10-18T13:09:38;21.49;57.59
67354;SHT30;54238;52.278;21.056;2022-10-18T13:18:29;21.28;58.51
67354;SHT30;54238;52.278;21.056;2022-10-18T13:35:56;21.11;59.23
67354;SHT30;54238;52.278;21.056;2022-10-18T13:50:09;20.93;59.96
67354;SHT30;54238;52.278;21.056;2022-10-18T14:02:28;20.78;60.44
67354;SHT30;54238;52.278;21.056;2022-10-18T14:08:37;20.66;60.93
67354;SHT30;54238;52.278;21.056;2022-10-18T14:11:23;20.59;61.18
67354;SHT30;54238;52.278;21.056;2022-10-18T14:17:18;20.46;61.54
67354;SHT30;54238;52.278;21.056;2022-10-18T14:19:56;20.43;61.72
67354;SHT30;54238;52.278;21.056;2022-10-18T14:23:05;20.40;61.97
67354;SHT30;54238;52.278;21.056;2022-10-18T14:25:37;20.36;62.00
67354;SHT30;54238;52.278;21.056;2022-10-18T14:28:21;20.33;62.14
67354;SHT30;54238;52.278;21.056;2022-10-18T14:31:34;20.30;62.15
67354;SHT30;54238;52.278;21.056;2022-10-18T14:33:54;20.24;62.29
67354;SHT30;54238;52.278;21.056;2022-10-18T14:36:28;20.19;62.37
67354;SHT30;54238;52.278;21.056;2022-10-18T14:39:06;20.13;62.48
67354;SHT30;54238;52.278;21.056;2022-10-18T14:41:50;20.07;62.58
67354;SHT30;54238;52.278;21.056;2022-10-18T14:44:23;20.05;62.74
67354;SHT30;54238;52.278;21.056;2022-10-18T14:49:43;19.90;63.31
67354;SHT30;54238;52.278;21.056;2022-10-18T14:52:24;19.82;63.52
67354;SHT30;54238;52.278;21.056;2022-10-18T14:54:57;19.75;63.94
67354;SHT30;54238;52.278;21.056;2022-10-18T14:57:29;19.66;64.64
67354;SHT30;54238;52.278;21.056;2022-10-18T15:00:13;19.52;65.42
67354;SHT30;54238;52.278;21.056;2022-10-18T15:03:01;19.41;65.94
67354;SHT30;54238;52.278;21.056;2022-10-18T15:05:31;19.35;66.35
67354;SHT30;54238;52.278;21.056;2022-10-18T15:07:58;19.26;66.68
67354;SHT30;54238;52.278;21.056;2022-10-18T15:10:29;19.15;66.77
67354;SHT30;54238;52.278;21.056;2022-10-18T15:13:02;19.05;66.85
67354;SHT30;54238;52.278;21.056;2022-10-18T15:15:31;18.98;66.91
67354;SHT30;54238;52.278;21.056;2022-10-18T15:18:00;18.91;66.99
67354;SHT30;54238;52.278;21.056;2022-10-18T15:20:28;18.81;66.95
67354;SHT30;54238;52.278;21.056;2022-10-18T15:26:05;18.61;67.29
67354;SHT30;54238;52.278;21.056;2022-10-18T15:28:41;18.56;67.34
67354;SHT30;54238;52.278;21.056;2022-10-18T15:31:26;18.49;67.45
67354;SHT30;54238;52.278;21.056;2022-10-18T15:34:29;18.44;67.74
67354;SHT30;54238;52.278;21.056;2022-10-18T15:36:59;18.37;68.11
67354;SHT30;54238;52.278;21.056;2022-10-18T15:43:04;18.24;69.22
67354;SHT30;54238;52.278;21.056;2022-10-18T15:48:34;18.02;70.76
67354;SHT30;54238;52.278;21.056;2022-10-18T15:51:35;17.89;71.50
67354;SHT30;54238;52.278;21.056;2022-10-18T15:54:17;17.78;72.11
67354;SHT30;54238;52.278;21.056;2022-10-18T15:56:57;17.66;72.43
67354;SHT30;54238;52.278;21.056;2022-10-18T15:59:32;17.54;73.51
67354;SHT30;54238;52.278;21.056;2022-10-18T16:02:01;17.40;74.23
67354;SHT30;54238;52.278;21.056;2022-10-18T16:04:30;17.29;74.71
67354;SHT30;54238;52.278;21.056;2022-10-18T16:06:59;17.24;74.86
67354;SHT30;54238;52.278;21.056;2022-10-18T16:09:28;17.21;75.13
67354;SHT30;54238;52.278;21.056;2022-10-18T16:11:58;17.15;75.58
67354;SHT30;54238;52.278;21.056;2022-10-18T16:14:29;17.07;75.69
67354;SHT30;54238;52.278;21.056;2022-10-18T16:17:04;17.04;75.79
67354;SHT30;54238;52.278;21.056;2022-10-18T16:19:33;17.00;75.77
67354;SHT30;54238;52.278;21.056;2022-10-18T16:22:05;16.95;75.67
67354;SHT30;54238;52.278;21.056;2022-10-18T16:24:32;16.86;75.78
67354;SHT30;54238;52.278;21.056;2022-10-18T16:27:01;16.81;76.18
67354;SHT30;54238;52.278;21.056;2022-10-18T16:29:37;16.79;76.37
67354;SHT30;54238;52.278;21.056;2022-10-18T16:32:06;16.81;76.38
67354;SHT30;54238;52.278;21.056;2022-10-18T16:34:34;16.82;76.43
67354;SHT30;54238;52.278;21.056;2022-10-18T16:37:01;16.81;76.48
67354;SHT30;54238;52.278;21.056;2022-10-18T16:39:28;16.83;76.50
67354;SHT30;54238;52.278;21.056;2022-10-18T16:42:00;16.83;76.66
67354;SHT30;54238;52.278;21.056;2022-10-18T16:44:29;16.84;76.71
67354;SHT30;54238;52.278;21.056;2022-10-18T16:47:01;16.83;76.83
67354;SHT30;54238;52.278;21.056;2022-10-18T16:49:31;16.84;76.80
67354;SHT30;54238;52.278;21.056;2022-10-18T16:52:00;16.85;76.78
67354;SHT30;54238;52.278;21.056;2022-10-18T16:54:27;16.85;76.77
67354;SHT30;54238;52.278;21.056;2022-10-18T16:57:02;16.85;76.88
67354;SHT30;54238;52.278;21.056;2022-10-18T16:59:30;16.86;76.95
67354;SHT30;54238;52.278;21.056;2022-10-18T17:01:57;16.84;76.95
67354;SHT30;54238;52.278;21.056;2022-10-18T17:04:24;16.82;76.96
67354;SHT30;54238;52.278;21.056;2022-10-18T17:06:54;16.81;77.13
67354;SHT30;54238;52.278;21.056;2022-10-18T17:09:25;16.73;77.38
67354;SHT30;54238;52.278;21.056;2022-10-18T17:11:57;16.70;77.47
67354;SHT30;54238;52.278;21.056;2022-10-18T17:14:26;16.71;77.63
67354;SHT30;54238;52.278;21.056;2022-10-18T17:16:53;16.69;77.70
67354;SHT30;54238;52.278;21.056;2022-10-18T17:19:20;16.67;77.79
67354;SHT30;54238;52.278;21.056;2022-10-18T17:21:52;16.69;77.88
67354;SHT30;54238;52.278;21.056;2022-10-18T17:24:22;16.67;77.93
67354;SHT30;54238;52.278;21.056;2022-10-18T17:26:51;16.66;77.94
67354;SHT30;54238;52.278;21.056;2022-10-18T17:29:27;16.62;77.73
67354;SHT30;54238;52.278;21.056;2022-10-18T17:31:59;16.55;77.17
67354;SHT30;54238;52.278;21.056;2022-10-18T17:34:27;16.46;76.83
67354;SHT30;54238;52.278;21.056;2022-10-18T17:36:54;16.40;76.62
67354;SHT30;54238;52.278;21.056;2022-10-18T17:39:23;16.35;76.41
67354;SHT30;54238;52.278;21.056;2022-10-18T17:41:53;16.33;76.26
67354;SHT30;54238;52.278;21.056;2022-10-18T17:44:22;16.25;75.80
67354;SHT30;54238;52.278;21.056;2022-10-18T17:46:52;16.17;75.78
67354;SHT30;54238;52.278;21.056;2022-10-18T17:49:21;16.15;75.85
67354;SHT30;54238;52.278;21.056;2022-10-18T17:51:50;16.12;75.82
67354;SHT30;54238;52.278;21.056;2022-10-18T17:54:17;16.11;75.94
67354;SHT30;54238;52.278;21.056;2022-10-18T17:56:44;16.07;76.05
67354;SHT30;54238;52.278;21.056;2022-10-18T17:59:11;16.00;75.90
67354;SHT30;54238;52.278;21.056;2022-10-18T18:01:41;15.91;76.11
67354;SHT30;54238;52.278;21.056;2022-10-18T18:04:10;15.88;76.36
67354;SHT30;54238;52.278;21.056;2022-10-18T18:06:45;15.85;76.30
67354;SHT30;54238;52.278;21.056;2022-10-18T18:09:17;15.82;76.41
67354;SHT30;54238;52.278;21.056;2022-10-18T18:11:44;15.82;76.27
67354;SHT30;54238;52.278;21.056;2022-10-18T18:14:14;15.82;76.39
67354;SHT30;54238;52.278;21.056;2022-10-18T18:16:48;15.79;76.55
67354;SHT30;54238;52.278;21.056;2022-10-18T18:19:16;15.76;76.55
67354;SHT30;54238;52.278;21.056;2022-10-18T18:21:45;15.75;76.82
67354;SHT30;54238;52.278;21.056;2022-10-18T18:24:12;15.73;77.10
67354;SHT30;54238;52.278;21.056;2022-10-18T18:26:40;15.73;77.12
67354;SHT30;54238;52.278;21.056;2022-10-18T18:29:10;15.74;77.14
67354;SHT30;54238;52.278;21.056;2022-10-18T18:31:38;15.77;77.08
67354;SHT30;54238;52.278;21.056;2022-10-18T18:34:08;15.81;76.94
67354;SHT30;54238;52.278;21.056;2022-10-18T18:36:35;15.84;76.84
67354;SHT30;54238;52.278;21.056;2022-10-18T18:39:04;15.82;76.81
67354;SHT30;54238;52.278;21.056;2022-10-18T18:41:31;15.85;76.84
67354;SHT30;54238;52.278;21.056;2022-10-18T18:44:04;15.85;76.83
67354;SHT30;54238;52.278;21.056;2022-10-18T18:46:36;15.81;76.87
67354;SHT30;54238;52.278;21.056;2022-10-18T18:49:08;15.75;77.06
67354;SHT30;54238;52.278;21.056;2022-10-18T18:51:39;15.67;77.32
67354;SHT30;54238;52.278;21.056;2022-10-18T18:54:10;15.64;77.47
67354;SHT30;54238;52.278;21.056;2022-10-18T18:56:40;15.61;77.60
67354;SHT30;54238;52.278;21.056;2022-10-18T18:59:11;15.58;77.79
67354;SHT30;54238;52.278;21.056;2022-10-18T19:01:41;15.56;77.90
67354;SHT30;54238;52.278;21.056;2022-10-18T19:04:11;15.50;78.32
67354;SHT30;54238;52.278;21.056;2022-10-18T19:06:42;15.44;78.40